Time;durP1;ratioP1;P1;durP2;ratioP2;P2;SDS_P1;SDS_P2;PMS_P1;PMS_P2;Temp;Humidity;BMP_temperature;BMP_pressure;BME280_temperature;BME280_humidity;BME280_pressure;Samples;Min_cycle;Max_cycle;Signal;HPM_P1;HPM_P2
2023/07/08 00:00:14;;;;;;;;;7.00;6.50;;;;;25.49;41.45;100648.97;5064585;28;54340;-69
2023/07/08 00:02:41;;;;;;;;;6.50;6.00;;;;;25.47;41.20;100648.28;5068400;27;45251;-69
2023/07/08 00:05:08;;;;;;;;;7.00;7.00;;;;;25.43;41.45;100643.34;5066563;28;45902;-69
2023/07/08 00:07:33;;;;;;;;;7.00;6.00;;;;;25.42;41.31;100652.38;5080647;28;45271;-69
2023/07/08 00:09:58;;;;;;;;;11.00;6.75;;;;;25.39;41.60;100650.81;5067621;28;59981;-68
2023/07/08 00:12:24;;;;;;;;;7.00;5.75;;;;;25.39;41.33;100657.03;5076407;28;45339;-68
2023/07/08 00:14:49;;;;;;;;;8.00;6.25;;;;;25.33;41.70;100652.22;5072776;28;49804;-68
2023/07/08 00:17:14;;;;;;;;;10.00;7.00;;;;;25.35;41.68;100660.13;5079544;27;66353;-68
2023/07/08 00:19:40;;;;;;;;;7.75;7.00;;;;;25.35;41.83;100666.31;5071325;28;56308;-68
2023/07/08 00:22:13;;;;;;;;;10.75;8.50;;;;;25.32;41.75;100661.25;5078841;28;45985;-69
2023/07/08 00:24:41;;;;;;;;;8.25;8.00;;;;;25.31;41.38;100669.44;5070324;28;46370;-68
2023/07/08 00:27:10;;;;;;;;;8.50;6.00;;;;;25.31;41.71;100670.25;5076086;28;45421;-69
2023/07/08 00:29:35;;;;;;;;;7.00;6.00;;;;;25.29;41.72;100664.19;5057863;28;45402;-69
2023/07/08 00:32:00;;;;;;;;;9.25;8.00;;;;;25.28;41.68;100667.84;5070237;28;60072;-69
2023/07/08 00:34:25;;;;;;;;;8.25;8.00;;;;;25.27;41.69;100670.66;5076045;28;67818;-69
2023/07/08 00:36:51;;;;;;;;;6.25;6.25;;;;;25.26;41.84;100663.63;5078147;28;64567;-69
2023/07/08 00:39:16;;;;;;;;;14.00;6.50;;;;;25.24;41.66;100669.09;5074667;28;57352;-69
2023/07/08 00:41:42;;;;;;;;;9.00;6.50;;;;;25.25;41.82;100678.00;5074375;28;45422;-69
2023/07/08 00:44:12;;;;;;;;;10.75;8.25;;;;;25.24;42.19;100685.16;5072745;28;45490;-69
2023/07/08 00:46:46;;;;;;;;;9.50;7.25;;;;;25.22;41.92;100689.81;5055424;28;45676;-69
2023/07/08 00:49:26;;;;;;;;;6.75;6.00;;;;;25.24;42.15;100681.66;5064181;28;45358;-68
2023/07/08 00:51:52;;;;;;;;;9.00;6.25;;;;;25.23;41.71;100687.97;5092152;27;45382;-68
2023/07/08 00:54:19;;;;;;;;;8.00;2.75;;;;;25.22;41.87;100687.13;5074893;28;71763;-68
2023/07/08 00:56:53;;;;;;;;;11.75;7.25;;;;;25.22;41.98;100681.78;5091663;27;45822;-68
2023/07/08 00:59:22;;;;;;;;;7.25;7.25;;;;;25.18;41.97;100678.53;5068703;28;46392;-68
2023/07/08 01:01:48;;;;;;;;;8.25;7.00;;;;;25.18;42.15;100675.84;5077607;28;45655;-69
2023/07/08 01:04:25;;;;;;;;;8.00;7.50;;;;;25.14;42.00;100677.13;5072141;28;57619;-69
2023/07/08 01:06:57;;;;;;;;;8.25;8.00;;;;;25.17;42.08;100671.47;5076575;28;45792;-69
2023/07/08 01:09:27;;;;;;;;;7.25;7.00;;;;;25.16;42.04;100672.47;5075808;27;45283;-69
2023/07/08 01:11:53;;;;;;;;;7.50;6.75;;;;;25.15;41.79;100661.91;5094921;27;45511;-69
2023/07/08 01:14:20;;;;;;;;;10.50;8.50;;;;;25.12;41.97;100671.03;5048520;28;46102;-69
2023/07/08 01:16:46;;;;;;;;;11.50;9.25;;;;;25.11;42.13;100663.16;5067860;28;45422;-69
2023/07/08 01:19:16;;;;;;;;;8.50;7.75;;;;;25.12;42.23;100678.22;5077589;28;45532;-69
2023/07/08 01:21:47;;;;;;;;;11.25;10.25;;;;;25.09;42.25;100683.84;5074643;28;45446;-69
2023/07/08 01:24:12;;;;;;;;;10.00;8.25;;;;;25.06;42.31;100686.81;5058300;28;48306;-69
2023/07/08 01:26:41;;;;;;;;;11.25;9.25;;;;;25.05;42.68;100685.97;5074425;28;68598;-69
2023/07/08 01:29:09;;;;;;;;;9.25;7.50;;;;;24.98;42.24;100666.06;5067719;28;47882;-69
2023/07/08 01:31:35;;;;;;;;;9.50;5.75;;;;;24.99;42.13;100676.66;5059312;28;45409;-69
2023/07/08 01:34:00;;;;;;;;;11.50;10.25;;;;;24.97;42.28;100662.56;5063511;28;47074;-69
2023/07/08 01:36:30;;;;;;;;;17.00;11.75;;;;;24.98;42.14;100683.00;5078196;28;50008;-68
2023/07/08 01:38:55;;;;;;;;;14.75;14.50;;;;;24.94;42.08;100673.53;5075194;28;45233;-68
2023/07/08 01:41:21;;;;;;;;;14.75;11.25;;;;;24.92;42.26;100680.84;5076460;28;62708;-69
2023/07/08 01:43:46;;;;;;;;;23.50;20.50;;;;;24.91;42.63;100686.34;5072400;28;53635;-69
2023/07/08 01:46:15;;;;;;;;;24.50;21.75;;;;;24.91;42.34;100695.22;5068150;28;54337;-67
2023/07/08 01:48:45;;;;;;;;;32.25;25.50;;;;;24.92;42.64;100709.47;5061158;28;45316;-68
2023/07/08 01:51:11;;;;;;;;;32.25;24.25;;;;;24.89;43.00;100721.28;5072091;28;45469;-68
2023/07/08 01:53:40;;;;;;;;;41.25;30.50;;;;;24.91;42.81;100786.22;5059405;28;75909;-67
2023/07/08 01:56:06;;;;;;;;;24.75;19.00;;;;;24.91;43.14;100791.59;5076864;28;45280;-68
2023/07/08 01:58:31;;;;;;;;;16.25;12.25;;;;;24.89;42.96;100795.38;5065801;28;45474;-67
2023/07/08 02:00:56;;;;;;;;;9.75;8.25;;;;;24.92;42.97;100798.66;5069565;28;45699;-68
2023/07/08 02:03:23;;;;;;;;;10.00;7.00;;;;;24.90;42.96;100805.13;5074008;28;71501;-68
2023/07/08 02:05:48;;;;;;;;;8.75;7.00;;;;;24.93;43.00;100802.16;5088461;27;45475;-68
2023/07/08 02:08:14;;;;;;;;;7.50;6.50;;;;;24.93;42.72;100811.06;5076502;28;45299;-67
2023/07/08 02:10:41;;;;;;;;;10.00;6.75;;;;;24.90;43.45;100815.84;5072825;27;45455;-69
2023/07/08 02:13:07;;;;;;;;;10.25;6.00;;;;;24.90;43.23;100811.31;5074552;28;47089;-69
2023/07/08 02:15:32;;;;;;;;;7.25;6.50;;;;;24.87;43.47;100821.44;5054749;28;66768;-69
2023/07/08 02:17:57;;;;;;;;;6.50;6.50;;;;;24.87;43.74;100824.97;5076505;28;48995;-69
2023/07/08 02:20:23;;;;;;;;;6.50;6.00;;;;;24.87;43.79;100814.25;5074046;28;45466;-69
2023/07/08 02:22:49;;;;;;;;;6.00;4.25;;;;;24.83;44.09;100808.31;5072326;28;45204;-69
2023/07/08 02:25:14;;;;;;;;;5.50;5.00;;;;;24.81;44.09;100802.25;5069294;27;45933;-69
2023/07/08 02:27:39;;;;;;;;;6.00;5.00;;;;;24.79;44.39;100795.34;5046557;28;46346;-69
2023/07/08 02:30:06;;;;;;;;;6.75;5.00;;;;;24.74;44.97;100790.38;5052352;28;45566;-69
2023/07/08 02:32:34;;;;;;;;;4.00;3.25;;;;;24.73;45.02;100794.03;5064068;27;47653;-70
2023/07/08 02:34:59;;;;;;;;;2.25;2.25;;;;;24.69;45.70;100781.91;5068857;28;45344;-69
2023/07/08 02:37:25;;;;;;;;;5.00;3.75;;;;;24.70;45.08;100777.38;5063214;28;45522;-69
2023/07/08 02:39:50;;;;;;;;;4.75;3.75;;;;;24.66;45.39;100767.94;5074066;28;65599;-69
2023/07/08 02:42:15;;;;;;;;;4.00;2.25;;;;;24.63;45.64;100782.44;5075353;28;47051;-69
2023/07/08 02:44:41;;;;;;;;;1.75;1.25;;;;;24.58;45.61;100780.16;5074925;27;63784;-69
2023/07/08 02:47:06;;;;;;;;;2.50;2.00;;;;;24.55;46.22;100779.56;5070106;28;45220;-69
2023/07/08 02:49:31;;;;;;;;;4.00;2.00;;;;;24.51;45.63;100770.09;5084632;27;59307;-69
2023/07/08 02:51:57;;;;;;;;;6.00;2.00;;;;;24.50;45.49;100771.88;5064639;27;64386;-70
2023/07/08 02:54:22;;;;;;;;;3.25;2.25;;;;;24.48;45.58;100773.84;5073456;28;45398;-69
2023/07/08 02:56:47;;;;;;;;;1.00;1.00;;;;;24.41;46.22;100762.81;5069709;28;45493;-69
2023/07/08 02:59:13;;;;;;;;;1.00;1.00;;;;;24.39;45.45;100769.28;5079153;27;45632;-69
2023/07/08 03:01:41;;;;;;;;;1.00;1.00;;;;;24.34;45.58;100747.44;5066256;28;48087;-69
2023/07/08 03:04:13;;;;;;;;;2.00;2.00;;;;;24.32;45.65;100744.03;5067838;28;45468;-69
2023/07/08 03:06:43;;;;;;;;;1.50;1.25;;;;;24.29;45.73;100744.28;5069557;28;45485;-69
2023/07/08 03:09:09;;;;;;;;;1.00;1.00;;;;;24.28;45.62;100738.09;5061619;28;45522;-69
2023/07/08 03:11:35;;;;;;;;;1.00;0.00;;;;;24.24;45.72;100752.69;5056759;28;47774;-69
2023/07/08 03:14:01;;;;;;;;;0.50;0.50;;;;;24.21;46.02;100758.31;5069054;28;45836;-69
2023/07/08 03:16:26;;;;;;;;;1.25;1.25;;;;;24.18;45.95;100748.72;5072936;28;45371;-70
2023/07/08 03:18:52;;;;;;;;;2.25;1.25;;;;;24.14;46.17;100735.75;5064217;28;45461;-70
2023/07/08 03:21:18;;;;;;;;;2.00;1.00;;;;;24.14;46.83;100738.44;5076927;28;45298;-69
2023/07/08 03:23:43;;;;;;;;;2.00;1.00;;;;;24.11;46.50;100728.81;5077045;27;45406;-70
2023/07/08 03:26:14;;;;;;;;;3.00;1.25;;;;;24.08;46.08;100731.75;5072725;28;45373;-70
2023/07/08 03:28:39;;;;;;;;;2.00;0.00;;;;;24.07;45.79;100730.91;5052552;28;45544;-70
2023/07/08 03:31:09;;;;;;;;;2.25;1.00;;;;;24.06;46.22;100728.38;5075780;28;50236;-69
2023/07/08 03:33:34;;;;;;;;;2.75;1.25;;;;;24.04;46.47;100739.19;5074695;28;45847;-69
2023/07/08 03:36:00;;;;;;;;;4.50;1.25;;;;;24.04;46.56;100733.84;5075233;28;55034;-68
2023/07/08 03:38:26;;;;;;;;;3.75;0.25;;;;;23.99;45.78;100722.72;5070894;28;45673;-69
2023/07/08 03:40:51;;;;;;;;;1.50;1.00;;;;;24.01;45.92;100719.88;5068220;28;71970;-69
2023/07/08 03:43:16;;;;;;;;;0.25;0.25;;;;;23.98;46.01;100710.31;5066893;28;45377;-69
2023/07/08 03:45:42;;;;;;;;;2.25;2.25;;;;;23.97;46.13;100695.22;5073604;28;51493;-69
2023/07/08 03:48:10;;;;;;;;;3.50;2.25;;;;;23.98;45.74;100685.41;5076887;28;50254;-70
2023/07/08 03:50:35;;;;;;;;;2.50;2.50;;;;;23.95;46.31;100691.00;5073445;28;46749;-70
2023/07/08 03:53:01;;;;;;;;;3.00;2.25;;;;;23.91;46.39;100677.06;5064892;28;62872;-70
2023/07/08 03:55:27;;;;;;;;;2.25;2.25;;;;;23.90;46.47;100678.00;5072044;28;61127;-70
2023/07/08 03:57:52;;;;;;;;;2.00;1.25;;;;;23.90;46.50;100670.00;5074175;28;45706;-70
2023/07/08 04:00:17;;;;;;;;;2.25;2.00;;;;;23.87;46.53;100668.44;5086750;27;47955;-70
2023/07/08 04:02:45;;;;;;;;;2.00;1.00;;;;;23.84;46.35;100657.16;5077279;27;45391;-70
2023/07/08 04:05:19;;;;;;;;;1.25;1.25;;;;;23.82;46.09;100662.63;5077741;28;45509;-70
2023/07/08 04:07:44;;;;;;;;;3.00;1.00;;;;;23.77;46.40;100655.97;5058760;28;45659;-69
2023/07/08 04:10:10;;;;;;;;;3.00;2.25;;;;;23.68;46.36;100652.22;5072618;28;46293;-70
2023/07/08 04:12:36;;;;;;;;;1.25;1.25;;;;;23.63;46.56;100639.25;5073636;28;45510;-70
2023/07/08 04:15:02;;;;;;;;;1.00;1.00;;;;;23.58;46.54;100638.78;5075083;28;45399;-69
2023/07/08 04:17:27;;;;;;;;;2.00;1.25;;;;;23.54;46.49;100634.69;5071408;28;45728;-69
2023/07/08 04:19:53;;;;;;;;;0.00;0.00;;;;;23.49;46.85;100627.03;5071283;28;45532;-70
2023/07/08 04:22:18;;;;;;;;;1.25;1.25;;;;;23.47;46.85;100622.81;5076705;28;73912;-69
2023/07/08 04:24:44;;;;;;;;;2.00;1.25;;;;;23.45;46.82;100619.44;5073518;27;54246;-69
2023/07/08 04:27:15;;;;;;;;;3.00;1.25;;;;;23.41;46.92;100621.50;5078091;28;50046;-70
2023/07/08 04:29:40;;;;;;;;;2.00;2.00;;;;;23.35;47.04;100615.81;5072264;28;46169;-69
2023/07/08 04:32:06;;;;;;;;;2.50;2.25;;;;;23.35;46.65;100622.00;5079144;28;45282;-69
2023/07/08 04:34:31;;;;;;;;;2.50;1.25;;;;;23.33;46.75;100618.59;5071688;28;45452;-70
2023/07/08 04:36:57;;;;;;;;;2.25;1.25;;;;;23.35;47.18;100632.69;5071779;28;45431;-69
2023/07/08 04:39:22;;;;;;;;;4.00;1.75;;;;;23.39;46.84;100657.31;5055279;28;69875;-69
2023/07/08 04:41:47;;;;;;;;;1.75;1.75;;;;;23.42;47.27;100673.94;5068759;28;45858;-69
2023/07/08 04:44:13;;;;;;;;;3.00;1.00;;;;;23.47;47.16;100684.25;5070437;28;45300;-69
2023/07/08 04:46:39;;;;;;;;;2.00;1.25;;;;;23.50;47.03;100667.97;5079315;28;45496;-69
2023/07/08 04:49:06;;;;;;;;;4.25;2.25;;;;;23.52;46.91;100670.53;5079136;27;45501;-69
2023/07/08 04:51:32;;;;;;;;;3.25;1.50;;;;;23.55;46.85;100676.47;5079878;28;45743;-69
2023/07/08 04:53:57;;;;;;;;;3.00;1.25;;;;;23.53;47.07;100670.38;5077239;28;45320;-69
2023/07/08 04:56:23;;;;;;;;;5.75;1.50;;;;;23.56;47.06;100675.47;5053566;28;45223;-70
2023/07/08 04:58:50;;;;;;;;;0.25;0.25;;;;;23.59;47.23;100683.22;5061757;28;45456;-70
2023/07/08 05:01:15;;;;;;;;;3.00;2.00;;;;;23.64;46.86;100699.72;5078507;28;45440;-70
2023/07/08 05:03:40;;;;;;;;;1.25;0.75;;;;;23.67;47.24;100696.81;5076257;27;45388;-69
2023/07/08 05:06:06;;;;;;;;;2.25;1.00;;;;;23.74;46.71;100702.47;5077591;28;67510;-69
2023/07/08 05:08:31;;;;;;;;;3.25;2.25;;;;;23.77;46.64;100707.56;5073644;28;65316;-69
2023/07/08 05:10:57;;;;;;;;;1.25;1.25;;;;;23.82;46.76;100720.59;5077623;28;45494;-69
2023/07/08 05:13:22;;;;;;;;;2.25;2.25;;;;;23.89;46.73;100729.78;5073617;28;45574;-69
2023/07/08 05:15:48;;;;;;;;;10.25;10.25;;;;;23.90;46.67;100728.78;5069660;28;63873;-69
2023/07/08 05:18:13;;;;;;;;;10.25;5.00;;;;;23.92;46.70;100720.66;5060367;28;47381;-69
2023/07/08 05:20:40;;;;;;;;;3.50;1.50;;;;;23.96;46.03;100730.13;5067563;28;47934;-69
2023/07/08 05:23:05;;;;;;;;;1.00;1.00;;;;;23.96;46.33;100706.91;5058544;28;46982;-69
2023/07/08 05:25:31;;;;;;;;;1.25;1.25;;;;;24.00;46.43;100707.50;5054562;28;45330;-69
2023/07/08 05:27:57;;;;;;;;;1.50;1.50;;;;;24.00;46.34;100713.69;5064084;28;46991;-69
2023/07/08 05:30:22;;;;;;;;;3.50;1.50;;;;;24.04;46.62;100723.13;5055557;28;45420;-70
2023/07/08 05:32:47;;;;;;;;;1.25;1.25;;;;;24.11;46.08;100739.53;5078902;28;63337;-70
2023/07/08 05:35:13;;;;;;;;;1.50;1.50;;;;;24.12;46.19;100756.44;5056673;28;58790;-70
2023/07/08 05:37:39;;;;;;;;;4.00;2.25;;;;;24.14;46.32;100766.00;5075693;28;50597;-68
2023/07/08 05:40:06;;;;;;;;;2.75;1.00;;;;;24.16;46.68;100771.22;5073736;28;45670;-70
2023/07/08 05:42:32;;;;;;;;;1.75;1.75;;;;;24.18;46.69;100774.63;5073408;28;45436;-70
2023/07/08 05:44:57;;;;;;;;;2.25;1.50;;;;;24.20;47.08;100784.19;5065491;28;68993;-70
2023/07/08 05:47:23;;;;;;;;;1.50;1.50;;;;;24.21;46.83;100793.94;5091629;27;45340;-70
2023/07/08 05:49:49;;;;;;;;;3.25;2.25;;;;;24.22;46.74;100784.06;5056107;28;45486;-70
2023/07/08 05:52:14;;;;;;;;;2.00;2.00;;;;;24.24;46.89;100792.81;5078511;28;45440;-70
2023/07/08 05:54:40;;;;;;;;;7.75;2.25;;;;;24.27;46.98;100792.56;5075422;28;45311;-69
2023/07/08 05:57:07;;;;;;;;;1.00;1.00;;;;;24.31;46.96;100802.03;5067345;28;46396;-69
2023/07/08 05:59:34;;;;;;;;;3.75;2.25;;;;;24.35;46.97;100794.63;5073588;27;45641;-69
2023/07/08 06:01:59;;;;;;;;;3.75;2.75;;;;;24.38;47.08;100792.53;5056149;28;45321;-70
2023/07/08 06:04:25;;;;;;;;;2.25;1.25;;;;;24.44;46.68;100796.50;5075476;27;62722;-70
2023/07/08 06:06:50;;;;;;;;;2.75;1.75;;;;;24.50;46.64;100804.00;5078111;28;46292;-70
2023/07/08 06:09:15;;;;;;;;;5.50;2.00;;;;;24.57;46.64;100802.53;5076570;27;64693;-68
2023/07/08 06:11:41;;;;;;;;;1.50;1.00;;;;;24.72;46.12;100823.59;5072981;28;65356;-70
2023/07/08 06:14:06;;;;;;;;;3.00;2.00;;;;;24.80;46.29;100830.00;5078229;27;45660;-70
2023/07/08 06:16:34;;;;;;;;;1.00;1.00;;;;;24.83;45.83;100829.75;5075415;27;45416;-70
2023/07/08 06:18:59;;;;;;;;;3.25;2.00;;;;;24.86;46.15;100843.84;5076943;28;45410;-70
2023/07/08 06:21:25;;;;;;;;;2.00;2.00;;;;;24.89;45.93;100849.78;5060025;28;45260;-70
2023/07/08 06:23:50;;;;;;;;;4.00;1.25;;;;;24.96;46.02;100850.94;5074248;28;67892;-69
2023/07/08 06:26:15;;;;;;;;;3.00;3.00;;;;;25.00;45.72;100854.19;5072418;28;61381;-69
2023/07/08 06:28:41;;;;;;;;;3.50;2.75;;;;;25.05;45.82;100859.16;5076420;28;68601;-69
2023/07/08 06:31:06;;;;;;;;;6.25;3.50;;;;;25.07;45.85;100863.41;5073039;28;63742;-69
2023/07/08 06:33:31;;;;;;;;;5.75;3.25;;;;;25.06;45.72;100867.06;5068852;28;60777;-68
2023/07/08 06:35:56;;;;;;;;;2.75;2.25;;;;;25.10;46.07;100864.97;5056779;28;48202;-68
2023/07/08 06:38:22;;;;;;;;;4.25;3.25;;;;;25.13;45.61;100862.03;5066923;28;56464;-69
2023/07/08 06:40:47;;;;;;;;;3.00;2.25;;;;;25.17;46.04;100866.16;5066823;28;45772;-69
2023/07/08 06:43:13;;;;;;;;;2.00;2.00;;;;;25.18;45.90;100878.56;5072588;28;69616;-68
2023/07/08 06:45:38;;;;;;;;;5.50;3.00;;;;;25.21;45.79;100872.91;5075025;28;47255;-69
2023/07/08 06:48:03;;;;;;;;;3.25;2.75;;;;;25.23;45.77;100878.16;5071414;28;63206;-68
2023/07/08 06:50:30;;;;;;;;;3.00;3.00;;;;;25.28;45.86;100884.00;5088556;27;45447;-69
2023/07/08 06:52:55;;;;;;;;;1.50;1.00;;;;;25.28;45.70;100871.44;5071545;27;68946;-70
2023/07/08 06:55:21;;;;;;;;;2.75;2.00;;;;;25.33;45.96;100882.59;5066214;28;62857;-70
2023/07/08 06:57:46;;;;;;;;;3.25;2.00;;;;;25.36;45.52;100882.34;5075229;28;45340;-70
2023/07/08 07:00:12;;;;;;;;;5.50;2.00;;;;;25.38;45.68;100888.41;5070657;28;54086;-73
2023/07/08 07:02:38;;;;;;;;;4.00;2.00;;;;;25.33;45.43;100893.31;5076143;28;45394;-67
2023/07/08 07:05:04;;;;;;;;;2.25;1.50;;;;;25.32;45.64;100893.44;5055945;28;47625;-70
2023/07/08 07:07:30;;;;;;;;;4.00;2.00;;;;;25.29;45.92;100896.41;5075171;28;45410;-68
2023/07/08 07:09:55;;;;;;;;;4.50;2.00;;;;;25.28;45.48;100902.75;5070768;28;45628;-71
2023/07/08 07:12:21;;;;;;;;;3.50;1.25;;;;;25.27;45.18;100901.03;5078813;28;45177;-69
2023/07/08 07:14:46;;;;;;;;;2.50;2.00;;;;;25.29;45.68;100901.78;5069794;28;46244;-70
2023/07/08 07:17:12;;;;;;;;;1.25;1.25;;;;;25.32;45.71;100906.84;5071864;28;45355;-68
2023/07/08 07:19:37;;;;;;;;;3.75;2.75;;;;;25.39;45.26;100914.22;5068215;28;45469;-68
2023/07/08 07:22:03;;;;;;;;;3.50;1.00;;;;;25.44;45.40;100908.44;5060778;28;45534;-68
2023/07/08 07:24:28;;;;;;;;;1.75;1.75;;;;;25.47;45.17;100918.91;5069640;28;46468;-69
2023/07/08 07:26:54;;;;;;;;;1.00;1.00;;;;;25.50;44.84;100915.13;5057517;28;51937;-67
2023/07/08 07:29:21;;;;;;;;;2.25;2.00;;;;;25.53;44.89;100910.34;5071747;28;45448;-67
2023/07/08 07:31:47;;;;;;;;;3.50;1.00;;;;;25.56;44.57;100909.22;5057627;28;45355;-67
2023/07/08 07:34:14;;;;;;;;;3.00;1.00;;;;;25.58;44.79;100908.09;5076473;28;46346;-72
2023/07/08 07:36:39;;;;;;;;;5.00;1.50;;;;;25.62;44.39;100903.34;5076120;28;45340;-69
2023/07/08 07:39:04;;;;;;;;;2.50;2.00;;;;;25.68;44.41;100904.63;5070615;28;45897;-67
2023/07/08 07:41:30;;;;;;;;;3.50;1.00;;;;;25.75;44.39;100909.28;5071028;28;60556;-67
2023/07/08 07:43:55;;;;;;;;;1.50;1.00;;;;;25.81;44.17;100915.09;5065467;28;66947;-71
2023/07/08 07:46:21;;;;;;;;;1.25;1.25;;;;;25.86;44.43;100908.34;5074043;27;45426;-70
2023/07/08 07:48:46;;;;;;;;;4.00;1.00;;;;;25.91;44.26;100910.63;5078766;28;45303;-71
2023/07/08 07:51:12;;;;;;;;;1.00;1.00;;;;;25.94;44.07;100902.31;5074764;28;45758;-68
2023/07/08 07:53:38;;;;;;;;;3.50;1.00;;;;;25.99;43.74;100915.31;5075970;28;46157;-68
2023/07/08 07:56:04;;;;;;;;;1.75;1.75;;;;;26.05;44.19;100912.94;5051808;28;46077;-68
2023/07/08 07:58:29;;;;;;;;;3.00;3.00;;;;;26.10;43.83;100913.38;5075768;28;45229;-68
2023/07/08 08:00:55;;;;;;;;;3.25;1.00;;;;;26.14;43.83;100906.75;5068440;28;45489;-68
2023/07/08 08:03:21;;;;;;;;;4.25;1.00;;;;;26.23;44.17;100921.16;5078719;28;45511;-69
2023/07/08 08:05:47;;;;;;;;;3.00;2.00;;;;;26.32;44.36;100922.16;5074177;27;45537;-73
2023/07/08 08:08:12;;;;;;;;;4.00;2.75;;;;;26.42;43.82;100923.03;5080905;28;45417;-69
2023/07/08 08:10:37;;;;;;;;;3.00;2.00;;;;;26.51;43.22;100926.72;5058226;28;58000;-69
2023/07/08 08:13:03;;;;;;;;;2.25;1.00;;;;;26.61;43.09;100921.31;5073631;28;45516;-67
2023/07/08 08:15:29;;;;;;;;;3.25;2.50;;;;;26.74;43.25;100930.00;5087117;27;45345;-68
2023/07/08 08:17:55;;;;;;;;;4.75;2.50;;;;;26.85;43.01;100937.03;5078367;28;45350;-68
2023/07/08 08:20:22;;;;;;;;;5.75;3.00;;;;;26.93;42.66;100930.94;5072764;28;45430;-68
2023/07/08 08:22:48;;;;;;;;;0.25;0.00;;;;;27.01;42.86;100934.63;5078310;28;48388;-68
2023/07/08 08:25:18;;;;;;;;;4.25;2.75;;;;;27.06;42.47;100937.72;5071504;28;45384;-68
2023/07/08 08:27:44;;;;;;;;;2.25;2.00;;;;;27.05;42.46;100937.84;5081205;28;45435;-68
2023/07/08 08:30:10;;;;;;;;;2.00;0.25;;;;;27.08;42.50;100943.78;5072184;28;45522;-69
2023/07/08 08:32:35;;;;;;;;;5.75;3.25;;;;;27.11;42.75;100948.03;5068355;28;48620;-68
2023/07/08 08:35:01;;;;;;;;;3.00;3.00;;;;;27.17;42.25;100947.47;5072077;28;47254;-69
2023/07/08 08:37:26;;;;;;;;;3.25;2.00;;;;;27.26;42.28;100956.50;5080338;28;45469;-69
2023/07/08 08:39:51;;;;;;;;;2.75;2.75;;;;;27.27;42.53;100960.91;5073783;28;45488;-68
2023/07/08 08:42:26;;;;;;;;;2.00;2.00;;;;;27.32;42.31;100965.84;5079737;28;62777;-69
2023/07/08 08:44:51;;;;;;;;;6.00;3.25;;;;;27.31;42.64;100958.78;5070964;28;45605;-69
2023/07/08 08:47:40;;;;;;;;;4.00;3.00;;;;;27.39;41.85;100964.25;5080459;28;45269;-68
2023/07/08 08:50:15;;;;;;;;;3.50;2.50;;;;;27.45;41.75;100947.56;5057237;28;45516;-68
2023/07/08 08:52:41;;;;;;;;;3.00;3.00;;;;;27.51;42.10;100956.88;5081543;28;45499;-68
2023/07/08 08:55:15;;;;;;;;;3.00;2.00;;;;;27.57;42.09;100946.41;5074206;27;72323;-68
2023/07/08 08:58:11;;;;;;;;;5.00;3.75;;;;;27.68;41.92;100957.97;5080399;28;45422;-68
2023/07/08 09:01:11;;;;;;;;;4.00;4.00;;;;;27.76;41.52;100950.81;5071716;28;45509;-68
2023/07/08 09:04:02;;;;;;;;;5.50;3.75;;;;;27.83;41.92;100953.78;5054541;28;46736;-68
2023/07/08 09:06:30;;;;;;;;;4.25;4.00;;;;;27.88;41.74;100956.88;5070029;27;45732;-68
2023/07/08 09:08:57;;;;;;;;;6.25;3.25;;;;;27.92;41.88;100963.66;5078107;28;45513;-68
2023/07/08 09:11:52;;;;;;;;;11.50;9.75;;;;;27.98;41.44;100960.38;5079876;28;45236;-68
2023/07/08 09:14:25;;;;;;;;;8.75;8.00;;;;;28.02;41.25;100960.94;5076940;27;47305;-69
2023/07/08 09:17:21;;;;;;;;;8.00;8.00;;;;;28.08;41.47;100959.47;5077236;28;45387;-67
2023/07/08 09:19:58;;;;;;;;;5.75;3.75;;;;;28.14;41.77;100962.44;5074047;28;45548;-68
2023/07/08 09:22:42;;;;;;;;;2.50;2.50;;;;;28.23;41.29;100962.53;5080064;28;45342;-68
2023/07/08 09:25:32;;;;;;;;;5.75;3.00;;;;;28.28;41.77;100962.91;5076478;28;45480;-68
2023/07/08 09:27:57;;;;;;;;;3.00;3.00;;;;;28.29;41.27;100961.91;5079841;28;45319;-68
2023/07/08 09:30:24;;;;;;;;;6.75;3.00;;;;;28.32;41.37;100949.00;5077796;27;45443;-68
2023/07/08 09:32:50;;;;;;;;;6.75;3.25;;;;;28.39;41.67;100960.00;5079270;27;45446;-68
2023/07/08 09:35:21;;;;;;;;;3.75;2.75;;;;;28.46;40.82;100957.56;5073022;28;45482;-67
2023/07/08 09:37:48;;;;;;;;;3.00;3.00;;;;;28.55;41.17;100960.19;5077235;28;45773;-68
2023/07/08 09:40:21;;;;;;;;;5.75;4.50;;;;;28.67;41.02;100951.88;5056357;28;45406;-68
2023/07/08 09:42:51;;;;;;;;;5.00;4.50;;;;;28.84;41.02;100960.97;5076764;28;45391;-69
2023/07/08 09:45:23;;;;;;;;;4.75;4.25;;;;;28.98;40.62;100963.94;5069551;28;46413;-68
2023/07/08 09:47:52;;;;;;;;;4.75;4.75;;;;;29.07;40.17;100959.44;5079304;28;45695;-68
2023/07/08 09:50:24;;;;;;;;;5.75;5.00;;;;;29.12;40.22;100959.81;5054528;28;45247;-68
2023/07/08 09:52:54;;;;;;;;;3.25;3.25;;;;;29.22;40.13;100962.47;5066111;28;45577;-69
2023/07/08 09:55:20;;;;;;;;;8.25;6.25;;;;;29.30;40.13;100962.50;5069852;28;46033;-69
2023/07/08 09:57:47;;;;;;;;;8.75;5.00;;;;;29.34;40.11;100945.03;5080576;27;45433;-67
2023/07/08 10:00:16;;;;;;;;;5.00;4.75;;;;;29.35;39.86;100956.66;5060202;28;45392;-68
2023/07/08 10:02:58;;;;;;;;;7.75;4.75;;;;;29.28;39.93;100944.81;5079225;28;45214;-69
2023/07/08 10:05:29;;;;;;;;;6.50;5.25;;;;;29.29;39.94;100949.22;5072178;28;46557;-68
2023/07/08 10:07:56;;;;;;;;;6.00;4.25;;;;;29.27;40.07;100940.41;5079347;28;45241;-68
2023/07/08 10:10:36;;;;;;;;;4.25;4.00;;;;;29.30;40.34;100942.81;5073713;27;45334;-68
2023/07/08 10:13:17;;;;;;;;;7.00;5.25;;;;;29.29;39.95;100941.13;5079001;28;45250;-68
2023/07/08 10:15:55;;;;;;;;;6.25;5.00;;;;;29.32;40.56;100943.47;5073730;27;45483;-68
2023/07/08 10:18:28;;;;;;;;;8.25;6.25;;;;;29.31;39.95;100947.19;5058641;28;45634;-68
2023/07/08 10:21:09;;;;;;;;;6.50;5.75;;;;;29.26;39.92;100938.75;5077423;28;45472;-68
2023/07/08 10:23:40;;;;;;;;;5.00;5.00;;;;;29.27;39.96;100943.97;5078970;28;45284;-68
2023/07/08 10:26:18;;;;;;;;;5.50;4.00;;;;;29.27;40.45;100937.72;5073772;27;45581;-68
2023/07/08 10:28:53;;;;;;;;;5.00;4.00;;;;;29.30;40.17;100942.81;5061248;28;46090;-68
2023/07/08 10:31:32;;;;;;;;;7.00;6.75;;;;;29.35;40.31;100941.31;5075232;28;45239;-68
2023/07/08 10:34:32;;;;;;;;;0.50;0.00;;;;;29.38;39.81;100942.03;5076840;28;45434;-68
2023/07/08 10:37:05;;;;;;;;;6.50;3.75;;;;;29.39;39.76;100951.78;5078112;28;45239;-68
2023/07/08 10:39:33;;;;;;;;;4.50;4.00;;;;;29.40;39.74;100945.41;5077678;28;46150;-68
2023/07/08 10:42:37;;;;;;;;;7.25;6.25;;;;;29.43;39.38;100950.44;5072613;28;45194;-68
2023/07/08 10:45:12;;;;;;;;;4.75;4.25;;;;;29.46;39.24;100942.06;5067208;27;45291;-68
2023/07/08 10:47:45;;;;;;;;;8.25;5.00;;;;;29.49;39.14;100952.53;5082024;28;47379;-68
2023/07/08 10:50:34;;;;;;;;;4.00;4.00;;;;;29.54;38.60;100947.50;5072244;28;45369;-68
2023/07/08 10:53:36;;;;;;;;;4.50;4.50;;;;;29.57;38.71;100951.72;5070400;28;45386;-68
2023/07/08 10:56:16;;;;;;;;;6.50;5.25;;;;;29.57;38.50;100943.63;5075272;28;45439;-68
2023/07/08 10:59:00;;;;;;;;;9.25;5.00;;;;;29.58;38.96;100943.47;5081912;28;45721;-68
2023/07/08 11:01:34;;;;;;;;;5.75;5.00;;;;;29.59;38.62;100953.25;5055078;28;45340;-68
2023/07/08 11:04:32;;;;;;;;;7.25;5.75;;;;;29.62;38.72;100954.78;5079744;28;45678;-68
2023/07/08 11:07:05;;;;;;;;;7.00;5.00;;;;;29.61;38.65;100945.00;5077915;28;45594;-68
2023/07/08 11:09:47;;;;;;;;;7.00;5.50;;;;;29.67;38.64;100945.19;5078814;28;45485;-68
2023/07/08 11:12:35;;;;;;;;;8.00;6.25;;;;;29.72;38.36;100933.94;5064644;28;45286;-68
2023/07/08 11:15:25;;;;;;;;;4.00;4.00;;;;;29.73;38.58;100936.47;5076828;27;45612;-68
2023/07/08 11:18:17;;;;;;;;;7.75;7.75;;;;;29.76;38.58;100943.41;5064941;28;45379;-68
2023/07/08 11:21:04;;;;;;;;;13.75;13.00;;;;;29.80;38.45;100944.78;5050445;28;47514;-68
2023/07/08 11:23:33;;;;;;;;;3.75;3.50;;;;;29.80;38.35;100927.75;5081863;28;45414;-68
2023/07/08 11:26:10;;;;;;;;;4.25;4.00;;;;;29.81;38.34;100930.28;5058560;28;45303;-68
2023/07/08 11:28:36;;;;;;;;;5.50;5.00;;;;;29.82;38.32;100931.13;5083029;27;45412;-68
2023/07/08 11:31:02;;;;;;;;;6.00;4.50;;;;;29.85;38.41;100928.09;5075799;27;47079;-68